Time;durP1;ratioP1;P1;durP2;ratioP2;P2;SDS_P1;SDS_P2;PMS_P1;PMS_P2;Temp;Humidity;BMP_temperature;BMP_pressure;BME280_temperature;BME280_humidity;BME280_pressure;Samples;Min_cycle;Max_cycle;Signal;HPM_P1;HPM_P2
2023/09/23 00:00:40;;;;;;;2.40;2.20;;;14.70;99.90;;;;;;5078104;28;20638;-57
2023/09/23 00:03:08;;;;;;;2.00;1.80;;;14.60;99.90;;;;;;5083437;28;20522;-57
2023/09/23 00:05:37;;;;;;;1.90;1.80;;;14.60;99.90;;;;;;5076229;28;20452;-57
2023/09/23 00:08:06;;;;;;;1.80;1.70;;;14.60;99.90;;;;;;5076369;28;20452;-58
2023/09/23 00:10:34;;;;;;;2.17;1.50;;;14.60;99.90;;;;;;5077379;28;20815;-57
2023/09/23 00:13:00;;;;;;;3.10;1.37;;;14.50;99.90;;;;;;5093537;28;20452;-57
2023/09/23 00:15:27;;;;;;;2.50;1.67;;;14.50;99.90;;;;;;5096338;28;20489;-57
2023/09/23 00:17:55;;;;;;;3.77;1.10;;;14.50;99.90;;;;;;5094422;28;20451;-57
2023/09/23 00:20:22;;;;;;;1.50;1.40;;;14.60;99.90;;;;;;5095762;28;20489;-58
2023/09/23 00:22:54;;;;;;;1.57;1.30;;;14.60;99.90;;;;;;5091032;28;20476;-57
2023/09/23 00:25:23;;;;;;;1.30;1.20;;;14.60;99.90;;;;;;5075713;28;20460;-57
2023/09/23 00:27:50;;;;;;;1.50;1.40;;;14.70;99.90;;;;;;5076124;28;20459;-57
2023/09/23 00:30:17;;;;;;;1.40;1.30;;;14.70;99.90;;;;;;5075839;28;21064;-58
2023/09/23 00:32:44;;;;;;;2.00;1.57;;;14.70;99.90;;;;;;5090787;28;20542;-56
2023/09/23 00:35:12;;;;;;;1.50;1.40;;;14.70;99.60;;;;;;5077065;28;20436;-57
2023/09/23 00:37:39;;;;;;;1.47;1.37;;;14.70;99.70;;;;;;5075957;28;20448;-58
2023/09/23 00:40:16;;;;;;;1.80;1.70;;;14.70;99.50;;;;;;5075670;28;20512;-57
2023/09/23 00:42:44;;;;;;;1.47;1.37;;;14.70;99.40;;;;;;5093215;28;20880;-57
2023/09/23 00:45:15;;;;;;;1.93;1.47;;;14.70;99.30;;;;;;5077828;28;20539;-57
2023/09/23 00:47:42;;;;;;;1.60;1.50;;;14.70;99.10;;;;;;5075806;28;20468;-57
2023/09/23 00:50:18;;;;;;;3.73;2.53;;;14.70;99.10;;;;;;5075653;28;20457;-57
2023/09/23 00:52:48;;;;;;;2.53;2.23;;;14.70;98.80;;;;;;5075351;28;20930;-57
2023/09/23 00:55:17;;;;;;;2.43;2.23;;;14.70;99.00;;;;;;5087105;28;20472;-56
2023/09/23 00:57:46;;;;;;;3.03;2.73;;;14.70;98.90;;;;;;5088272;28;20491;-56
2023/09/23 01:00:22;;;;;;;4.17;3.40;;;14.70;99.00;;;;;;5090255;28;20480;-57
2023/09/23 01:02:49;;;;;;;5.53;3.33;;;14.70;99.00;;;;;;5094311;28;20478;-56
2023/09/23 01:05:18;;;;;;;3.63;3.43;;;14.60;99.00;;;;;;5094913;28;20936;-56
2023/09/23 01:07:48;;;;;;;4.77;3.87;;;14.60;99.20;;;;;;5085275;28;20550;-57
2023/09/23 01:10:17;;;;;;;4.73;4.30;;;14.60;99.20;;;;;;5075179;28;20460;-57
2023/09/23 01:12:45;;;;;;;4.97;4.20;;;14.60;99.30;;;;;;5084892;28;20482;-57
2023/09/23 01:15:12;;;;;;;5.93;4.43;;;14.60;99.30;;;;;;5084622;28;20535;-56
2023/09/23 01:17:39;;;;;;;5.47;4.80;;;14.60;99.30;;;;;;5077247;28;20457;-57
2023/09/23 01:20:09;;;;;;;5.43;4.23;;;14.60;99.50;;;;;;5074779;28;21011;-57
2023/09/23 01:22:37;;;;;;;6.60;4.50;;;14.60;99.50;;;;;;5076034;28;20747;-56
2023/09/23 01:25:04;;;;;;;5.33;4.00;;;14.60;99.40;;;;;;5074608;28;20469;-57
2023/09/23 01:27:34;;;;;;;4.40;4.00;;;14.60;99.40;;;;;;5074922;28;20859;-57
2023/09/23 01:30:03;;;;;;;5.50;4.90;;;14.60;99.30;;;;;;5080257;28;21015;-56
2023/09/23 01:32:38;;;;;;;5.03;4.60;;;14.60;99.20;;;;;;5092995;28;20444;-57
2023/09/23 01:35:05;;;;;;;4.90;4.37;;;14.60;99.40;;;;;;5083582;28;20929;-57
2023/09/23 01:37:32;;;;;;;5.00;3.87;;;14.50;99.30;;;;;;5094716;28;20857;-57
2023/09/23 01:40:01;;;;;;;4.17;3.57;;;14.50;99.20;;;;;;5084038;28;20568;-56
2023/09/23 01:42:30;;;;;;;4.30;3.50;;;14.50;99.30;;;;;;5077582;28;20449;-57
2023/09/23 01:44:57;;;;;;;4.53;2.73;;;14.50;99.40;;;;;;5088310;28;20451;-57
2023/09/23 01:47:24;;;;;;;4.60;3.13;;;14.50;99.40;;;;;;5074169;28;20937;-57
2023/09/23 01:49:50;;;;;;;7.97;2.60;;;14.50;99.40;;;;;;5088123;28;20471;-57
2023/09/23 01:52:17;;;;;;;6.00;2.60;;;14.50;99.60;;;;;;5092892;28;20447;-57
2023/09/23 01:54:45;;;;;;;6.70;2.50;;;14.50;99.20;;;;;;5093989;28;20505;-57
2023/09/23 01:57:16;;;;;;;5.13;2.97;;;14.50;99.30;;;;;;5095010;28;20479;-57
2023/09/23 01:59:43;;;;;;;5.70;2.40;;;14.50;99.30;;;;;;5092310;28;20479;-56
2023/09/23 02:02:10;;;;;;;5.47;2.40;;;14.50;99.20;;;;;;5082996;28;20860;-57
2023/09/23 02:04:37;;;;;;;4.50;2.07;;;14.50;99.10;;;;;;5090037;28;20455;-57
2023/09/23 02:07:04;;;;;;;2.90;1.60;;;14.50;99.10;;;;;;5094116;28;20508;-57
2023/09/23 02:09:34;;;;;;;3.07;2.00;;;14.50;99.10;;;;;;5093808;28;20471;-56
2023/09/23 02:12:01;;;;;;;3.27;1.60;;;14.40;99.00;;;;;;5081070;28;20448;-56
2023/09/23 02:14:29;;;;;;;5.33;1.77;;;14.50;99.20;;;;;;5090954;28;20499;-57
2023/09/23 02:16:56;;;;;;;3.63;1.67;;;14.40;99.10;;;;;;5092256;28;20481;-57
2023/09/23 02:19:23;;;;;;;4.67;2.00;;;14.50;99.10;;;;;;5094982;28;20478;-57
2023/09/23 02:21:50;;;;;;;4.70;1.80;;;14.50;99.00;;;;;;5094777;28;20448;-57
2023/09/23 02:24:18;;;;;;;2.00;1.40;;;14.40;99.00;;;;;;5082025;28;20832;-57
2023/09/23 02:26:46;;;;;;;3.17;1.23;;;14.50;99.10;;;;;;5075222;28;20457;-58
2023/09/23 02:29:14;;;;;;;6.23;1.50;;;14.50;98.80;;;;;;5074508;28;20492;-57
2023/09/23 02:31:46;;;;;;;4.23;1.80;;;14.40;98.80;;;;;;5074215;28;20453;-57
2023/09/23 02:34:16;;;;;;;6.53;1.47;;;14.40;98.90;;;;;;5088391;28;20453;-57
2023/09/23 02:36:45;;;;;;;4.60;1.93;;;14.40;99.00;;;;;;5083847;28;20964;-57
2023/09/23 02:39:15;;;;;;;3.37;1.67;;;14.40;99.00;;;;;;5081040;28;20472;-57
2023/09/23 02:41:45;;;;;;;5.73;1.30;;;14.30;98.90;;;;;;5093815;28;20937;-57
2023/09/23 02:44:14;;;;;;;4.33;1.10;;;14.30;98.70;;;;;;5082485;28;20934;-58
2023/09/23 02:46:42;;;;;;;8.87;1.57;;;14.30;98.80;;;;;;5075463;28;21003;-58
2023/09/23 02:49:09;;;;;;;4.10;1.50;;;14.30;98.90;;;;;;5087185;28;20489;-57
2023/09/23 02:51:36;;;;;;;3.87;1.50;;;14.30;99.00;;;;;;5093156;28;20436;-57
2023/09/23 02:54:05;;;;;;;2.73;1.20;;;14.30;99.00;;;;;;5093361;28;20448;-57
2023/09/23 02:56:33;;;;;;;3.77;1.17;;;14.30;98.90;;;;;;5093019;28;20865;-58
2023/09/23 02:59:00;;;;;;;2.07;1.10;;;14.30;99.00;;;;;;5089438;28;20959;-57
2023/09/23 03:01:27;;;;;;;3.87;1.43;;;14.30;98.90;;;;;;5078914;28;20506;-57
2023/09/23 03:03:56;;;;;;;1.87;0.90;;;14.20;98.80;;;;;;5093139;28;20447;-57
2023/09/23 03:06:23;;;;;;;5.20;1.30;;;14.20;99.00;;;;;;5080375;28;20510;-57
2023/09/23 03:08:54;;;;;;;4.63;1.50;;;14.20;98.90;;;;;;5074304;28;20476;-57
2023/09/23 03:11:21;;;;;;;2.70;1.33;;;14.20;99.10;;;;;;5073205;28;20437;-57
2023/09/23 03:13:49;;;;;;;4.70;1.20;;;14.20;99.00;;;;;;5073550;28;20445;-57
2023/09/23 03:16:27;;;;;;;6.40;1.70;;;14.10;99.30;;;;;;5091732;28;20945;-57
2023/09/23 03:18:59;;;;;;;2.50;1.07;;;14.10;99.10;;;;;;5073286;28;20548;-58
2023/09/23 03:21:26;;;;;;;2.00;1.47;;;14.10;99.20;;;;;;5072838;28;20973;-57
2023/09/23 03:23:53;;;;;;;4.00;1.40;;;14.10;98.90;;;;;;5072841;28;20864;-58
2023/09/23 03:26:21;;;;;;;1.43;1.07;;;14.10;99.10;;;;;;5073227;28;20596;-57
2023/09/23 03:28:46;;;;;;;2.73;1.23;;;14.10;99.10;;;;;;5074247;28;20498;-57
2023/09/23 03:31:14;;;;;;;3.77;1.07;;;14.10;99.00;;;;;;5073002;28;20445;-57
2023/09/23 03:33:41;;;;;;;4.40;1.23;;;14.10;99.00;;;;;;5072797;28;20289;-58
2023/09/23 03:36:15;;;;;;;2.03;0.97;;;14.10;99.10;;;;;;5074713;28;20477;-57
2023/09/23 03:38:42;;;;;;;6.67;1.60;;;14.10;99.20;;;;;;5088914;28;20482;-57
2023/09/23 03:41:11;;;;;;;3.50;1.83;;;14.00;99.20;;;;;;5078747;28;20484;-57
2023/09/23 03:43:38;;;;;;;3.57;1.10;;;14.00;99.30;;;;;;5076780;28;20449;-58
2023/09/23 03:46:11;;;;;;;1.93;1.10;;;14.00;99.20;;;;;;5093362;28;20483;-57
2023/09/23 03:48:38;;;;;;;5.00;1.50;;;13.90;99.30;;;;;;5080862;28;20871;-57
2023/09/23 03:51:09;;;;;;;5.30;1.10;;;13.90;99.60;;;;;;5076800;28;20440;-57
2023/09/23 03:53:37;;;;;;;3.33;1.10;;;13.90;99.60;;;;;;5095284;28;20448;-57
2023/09/23 03:56:05;;;;;;;3.33;1.43;;;13.90;99.60;;;;;;5077046;28;20942;-57
2023/09/23 03:58:32;;;;;;;3.23;1.30;;;13.90;99.60;;;;;;5076551;28;20524;-57
2023/09/23 04:01:03;;;;;;;3.00;1.53;;;13.90;99.50;;;;;;5077690;28;20484;-58
2023/09/23 04:03:34;;;;;;;5.93;1.37;;;13.90;99.60;;;;;;5076424;28;20444;-57
2023/09/23 04:06:01;;;;;;;6.00;1.60;;;13.90;99.60;;;;;;5088029;28;20459;-57
2023/09/23 04:08:29;;;;;;;2.83;1.20;;;13.90;99.70;;;;;;5095824;28;20444;-57
2023/09/23 04:11:01;;;;;;;6.30;1.30;;;13.90;99.60;;;;;;5095766;28;20464;-58
2023/09/23 04:13:27;;;;;;;2.20;1.03;;;13.90;99.40;;;;;;5085437;28;20933;-57
2023/09/23 04:16:00;;;;;;;1.33;1.07;;;13.90;99.60;;;;;;5078376;28;20489;-57
2023/09/23 04:18:27;;;;;;;4.93;1.30;;;13.90;99.60;;;;;;5077575;28;20472;-57
2023/09/23 04:20:53;;;;;;;4.50;1.50;;;13.90;99.70;;;;;;5077126;28;20484;-57
2023/09/23 04:23:20;;;;;;;3.50;1.40;;;13.80;99.60;;;;;;5075963;28;20509;-57
2023/09/23 04:25:50;;;;;;;4.60;1.50;;;13.80;99.80;;;;;;5076188;28;20441;-57
2023/09/23 04:28:19;;;;;;;5.10;1.70;;;13.80;99.80;;;;;;5076358;28;20441;-57
2023/09/23 04:30:45;;;;;;;7.13;1.87;;;13.80;99.80;;;;;;5083765;28;20550;-57
2023/09/23 04:33:13;;;;;;;5.20;1.70;;;13.80;99.90;;;;;;5094612;28;20447;-57
2023/09/23 04:35:40;;;;;;;6.20;1.73;;;13.70;99.90;;;;;;5096498;28;20483;-57
2023/09/23 04:38:06;;;;;;;2.77;1.20;;;13.70;99.90;;;;;;5095808;28;20448;-57
2023/09/23 04:40:33;;;;;;;5.03;2.40;;;13.70;99.90;;;;;;5094484;28;20506;-57
2023/09/23 04:43:02;;;;;;;4.30;1.63;;;13.70;99.90;;;;;;5096098;28;20493;-57
2023/09/23 04:45:31;;;;;;;2.20;1.30;;;13.70;99.90;;;;;;5095318;28;20487;-57
2023/09/23 04:47:57;;;;;;;4.77;1.30;;;13.70;99.90;;;;;;5093902;28;20447;-57
2023/09/23 04:50:27;;;;;;;6.33;2.00;;;13.70;99.90;;;;;;5095455;28;20517;-57
2023/09/23 04:52:54;;;;;;;4.07;1.40;;;13.70;99.90;;;;;;5076527;28;20950;-57
2023/09/23 04:55:22;;;;;;;8.63;1.90;;;13.70;99.90;;;;;;5075512;28;20455;-57
2023/09/23 04:57:49;;;;;;;4.07;1.70;;;13.70;99.90;;;;;;5075537;28;20452;-57
2023/09/23 05:00:17;;;;;;;4.13;2.07;;;13.70;99.90;;;;;;5092334;28;20547;-57
2023/09/23 05:02:49;;;;;;;3.83;1.60;;;13.70;99.90;;;;;;5082933;28;20459;-57
2023/09/23 05:05:17;;;;;;;3.47;1.40;;;13.70;99.90;;;;;;5093639;28;20844;-56
2023/09/23 05:07:44;;;;;;;7.33;1.83;;;13.80;99.90;;;;;;5075087;28;20459;-57
2023/09/23 05:10:11;;;;;;;3.53;1.77;;;13.80;99.70;;;;;;5074640;28;20594;-56
2023/09/23 05:12:38;;;;;;;5.03;1.67;;;13.80;99.70;;;;;;5075072;28;20463;-57
2023/09/23 05:15:06;;;;;;;6.73;1.87;;;13.70;99.70;;;;;;5074852;28;20455;-57
2023/09/23 05:17:33;;;;;;;2.50;1.67;;;13.70;99.70;;;;;;5074403;28;20483;-57
2023/09/23 05:20:02;;;;;;;2.83;1.50;;;13.70;99.90;;;;;;5074296;28;20472;-56
2023/09/23 05:22:31;;;;;;;4.67;1.73;;;13.70;99.90;;;;;;5074659;28;20429;-57
2023/09/23 05:24:58;;;;;;;2.37;1.87;;;13.70;99.90;;;;;;5074583;28;20472;-58
2023/09/23 05:27:25;;;;;;;8.17;1.73;;;13.70;99.90;;;;;;5074604;28;20448;-57
2023/09/23 05:29:53;;;;;;;2.60;1.67;;;13.70;99.90;;;;;;5074814;28;20483;-57
2023/09/23 05:32:20;;;;;;;3.70;1.63;;;13.70;99.90;;;;;;5074890;28;20441;-57
2023/09/23 05:34:51;;;;;;;13.83;3.67;;;13.60;99.90;;;;;;5075996;28;20463;-57
2023/09/23 05:37:19;;;;;;;4.30;1.40;;;13.70;99.90;;;;;;5077543;28;20420;-57
2023/09/23 05:39:45;;;;;;;2.53;1.80;;;13.70;99.90;;;;;;5076083;28;20829;-57
2023/09/23 05:42:15;;;;;;;3.30;1.70;;;13.70;99.90;;;;;;5076272;28;20480;-57
2023/09/23 05:44:43;;;;;;;2.20;1.30;;;13.80;99.90;;;;;;5075587;28;20448;-57
2023/09/23 05:47:10;;;;;;;4.47;1.83;;;13.80;99.80;;;;;;5074814;28;20502;-57
2023/09/23 05:49:37;;;;;;;2.50;1.37;;;13.70;99.80;;;;;;5074709;28;20471;-57
2023/09/23 05:52:04;;;;;;;2.40;1.73;;;13.80;99.80;;;;;;5104717;28;20474;-57
2023/09/23 05:54:32;;;;;;;8.40;1.70;;;13.80;99.80;;;;;;5115099;28;20446;-57
2023/09/23 05:56:59;;;;;;;2.83;1.73;;;13.80;99.60;;;;;;5115262;28;20454;-57
2023/09/23 05:59:26;;;;;;;3.87;1.80;;;13.80;99.70;;;;;;5114072;28;21011;-57
2023/09/23 06:01:52;;;;;;;7.13;1.67;;;13.80;99.80;;;;;;5114907;28;20482;-58
2023/09/23 06:04:19;;;;;;;3.17;1.27;;;13.80;99.80;;;;;;5114898;28;20442;-57
2023/09/23 06:06:45;;;;;;;2.70;1.73;;;13.80;99.90;;;;;;5114884;28;20446;-58
2023/09/23 06:09:14;;;;;;;3.40;1.30;;;13.80;99.80;;;;;;5089177;28;20498;-58
2023/09/23 06:11:43;;;;;;;7.17;1.80;;;13.80;99.80;;;;;;5078917;28;20445;-57
2023/09/23 06:14:10;;;;;;;1.90;1.47;;;13.90;99.90;;;;;;5078217;28;20452;-57
2023/09/23 06:16:37;;;;;;;6.77;1.70;;;13.90;99.60;;;;;;5087297;28;20969;-57
2023/09/23 06:19:03;;;;;;;4.60;1.60;;;13.90;99.70;;;;;;5083409;28;20973;-57
2023/09/23 06:21:31;;;;;;;2.87;1.37;;;13.90;99.60;;;;;;5080530;28;20483;-57
2023/09/23 06:23:57;;;;;;;2.40;1.80;;;13.90;99.50;;;;;;5093976;28;20447;-57
2023/09/23 06:26:24;;;;;;;4.23;1.80;;;13.90;99.60;;;;;;5094133;28;20451;-58
2023/09/23 06:28:52;;;;;;;2.43;1.50;;;13.90;99.80;;;;;;5089039;28;20437;-57
2023/09/23 06:31:19;;;;;;;5.93;1.80;;;13.90;99.70;;;;;;5089392;28;20524;-57
2023/09/23 06:33:45;;;;;;;4.20;1.70;;;14.00;99.80;;;;;;5073809;28;20498;-58
2023/09/23 06:36:12;;;;;;;2.13;1.50;;;14.00;99.80;;;;;;5073750;28;20444;-58
2023/09/23 06:38:39;;;;;;;3.43;1.60;;;14.00;99.90;;;;;;5073681;28;20440;-58
2023/09/23 06:41:06;;;;;;;4.17;1.93;;;14.00;99.90;;;;;;5074615;28;20491;-57
2023/09/23 06:43:33;;;;;;;4.80;1.60;;;14.10;99.80;;;;;;5077579;28;20965;-57
2023/09/23 06:46:01;;;;;;;5.17;1.70;;;14.10;99.70;;;;;;5089844;28;20455;-58
2023/09/23 06:48:28;;;;;;;3.97;1.80;;;14.10;99.80;;;;;;5080479;28;20452;-57
2023/09/23 06:51:02;;;;;;;3.80;1.47;;;14.20;99.80;;;;;;5093788;28;20460;-58
2023/09/23 06:53:29;;;;;;;1.70;1.20;;;14.20;99.70;;;;;;5084742;28;20440;-58
2023/09/23 06:55:57;;;;;;;2.70;1.40;;;14.30;99.70;;;;;;5073218;28;20456;-58
2023/09/23 06:58:24;;;;;;;7.10;1.97;;;14.30;99.80;;;;;;5073173;28;20463;-57
2023/09/23 07:00:50;;;;;;;1.50;1.33;;;14.40;99.30;;;;;;5073427;28;20470;-57
2023/09/23 07:03:18;;;;;;;3.93;1.80;;;14.40;99.50;;;;;;5077360;28;20443;-57
2023/09/23 07:05:45;;;;;;;4.57;2.30;;;14.40;99.50;;;;;;5088607;28;20444;-58
2023/09/23 07:08:13;;;;;;;3.23;1.63;;;14.40;99.10;;;;;;5085030;28;20458;-57
2023/09/23 07:10:41;;;;;;;6.20;2.03;;;14.50;99.30;;;;;;5073484;28;20468;-57
2023/09/23 07:13:08;;;;;;;2.63;1.77;;;14.50;99.10;;;;;;5073278;28;20445;-57
2023/09/23 07:15:37;;;;;;;2.10;1.43;;;14.50;99.50;;;;;;5087546;28;20534;-57
2023/09/23 07:18:04;;;;;;;4.50;2.13;;;14.60;99.40;;;;;;5080575;28;20472;-57
2023/09/23 07:20:33;;;;;;;3.43;1.33;;;14.60;99.00;;;;;;5093444;28;20460;-58
2023/09/23 07:23:00;;;;;;;2.60;1.70;;;14.60;98.90;;;;;;5088463;28;20479;-57
2023/09/23 07:25:27;;;;;;;3.60;1.40;;;14.60;98.80;;;;;;5084778;28;20491;-58
2023/09/23 07:27:54;;;;;;;3.10;1.70;;;14.70;99.30;;;;;;5073288;28;20440;-58
2023/09/23 07:30:21;;;;;;;2.70;1.60;;;14.70;98.80;;;;;;5073110;28;20465;-58
2023/09/23 07:32:48;;;;;;;8.67;1.47;;;14.70;98.70;;;;;;5073073;28;20437;-58
2023/09/23 07:35:14;;;;;;;4.80;1.80;;;14.80;98.70;;;;;;5087201;28;20444;-57
2023/09/23 07:37:42;;;;;;;5.00;1.77;;;14.80;99.00;;;;;;5091719;28;20447;-57
2023/09/23 07:40:10;;;;;;;3.30;1.60;;;14.80;98.90;;;;;;5084636;28;21016;-58
2023/09/23 07:42:37;;;;;;;5.53;1.93;;;14.90;99.10;;;;;;5072909;28;20480;-58
2023/09/23 07:45:04;;;;;;;2.30;1.57;;;14.90;98.80;;;;;;5072968;28;20440;-58
2023/09/23 07:47:31;;;;;;;4.77;1.27;;;15.00;98.40;;;;;;5073033;28;20449;-58
2023/09/23 07:49:58;;;;;;;7.50;1.93;;;15.10;98.20;;;;;;5072828;28;20518;-58
2023/09/23 07:52:25;;;;;;;2.10;1.90;;;15.10;97.70;;;;;;5073020;28;20480;-58
2023/09/23 07:54:53;;;;;;;2.90;1.60;;;15.10;97.70;;;;;;5072484;28;20946;-58
2023/09/23 07:57:20;;;;;;;5.53;2.00;;;15.10;97.60;;;;;;5072962;28;20490;-58
2023/09/23 07:59:47;;;;;;;4.43;1.97;;;15.10;97.90;;;;;;5073403;28;20527;-58
2023/09/23 08:02:14;;;;;;;2.53;1.73;;;15.10;97.80;;;;;;5072627;28;20516;-58
2023/09/23 08:04:40;;;;;;;3.90;1.87;;;15.20;98.00;;;;;;5072830;28;20440;-58
2023/09/23 08:07:07;;;;;;;3.60;1.67;;;15.30;98.00;;;;;;5073281;28;20448;-58
2023/09/23 08:09:34;;;;;;;3.53;1.80;;;15.40;97.80;;;;;;5072611;28;20496;-58
2023/09/23 08:12:02;;;;;;;10.03;2.10;;;15.50;97.40;;;;;;5078404;28;20436;-58
2023/09/23 08:14:29;;;;;;;2.80;1.80;;;15.60;97.30;;;;;;5092510;28;20443;-58
2023/09/23 08:16:56;;;;;;;4.30;2.10;;;15.60;96.70;;;;;;5092559;28;20513;-58
2023/09/23 08:19:23;;;;;;;10.43;2.03;;;15.70;96.70;;;;;;5092860;28;20472;-58
2023/09/23 08:21:49;;;;;;;3.17;2.23;;;15.80;96.70;;;;;;5093804;28;20479;-58
2023/09/23 08:24:16;;;;;;;3.60;1.80;;;15.90;96.80;;;;;;5096165;28;20459;-59
2023/09/23 08:26:43;;;;;;;5.70;1.97;;;15.90;96.30;;;;;;5096291;28;20443;-58
2023/09/23 08:29:11;;;;;;;4.63;2.67;;;16.00;95.70;;;;;;5096277;28;20470;-58
2023/09/23 08:31:38;;;;;;;4.90;1.93;;;16.00;96.10;;;;;;5096346;28;20436;-58
2023/09/23 08:34:09;;;;;;;4.30;2.07;;;16.00;95.30;;;;;;5092128;28;21000;-58
2023/09/23 08:36:36;;;;;;;5.57;2.37;;;16.10;95.60;;;;;;5075629;28;20900;-58
2023/09/23 08:39:07;;;;;;;3.60;1.80;;;16.10;96.00;;;;;;5076093;28;20467;-58
2023/09/23 08:41:35;;;;;;;6.00;2.00;;;16.20;95.90;;;;;;5076970;28;20551;-58
2023/09/23 08:44:05;;;;;;;3.70;2.00;;;16.00;95.10;;;;;;5077608;28;20445;-58
2023/09/23 08:46:33;;;;;;;4.93;2.17;;;16.00;95.70;;;;;;5077221;28;20433;-58
2023/09/23 08:49:01;;;;;;;4.23;2.00;;;16.00;95.40;;;;;;5075439;28;20982;-58
2023/09/23 08:51:28;;;;;;;3.80;1.73;;;16.00;96.10;;;;;;5076035;28;20444;-57
2023/09/23 08:53:56;;;;;;;3.50;1.80;;;16.20;96.30;;;;;;5075829;28;20448;-58
2023/09/23 08:56:23;;;;;;;3.83;2.30;;;16.40;96.10;;;;;;5075780;28;20452;-58
2023/09/23 08:58:49;;;;;;;5.93;2.33;;;16.40;95.70;;;;;;5075858;28;20444;-58
2023/09/23 09:01:17;;;;;;;5.50;2.70;;;16.40;94.90;;;;;;5075552;28;20487;-58
2023/09/23 09:03:47;;;;;;;3.43;2.03;;;16.50;94.80;;;;;;5075708;28;20472;-58
2023/09/23 09:06:17;;;;;;;6.03;1.97;;;16.50;94.70;;;;;;5075525;28;20482;-58
2023/09/23 09:08:44;;;;;;;7.10;2.27;;;16.70;94.90;;;;;;5075408;28;20530;-58
2023/09/23 09:11:11;;;;;;;5.93;2.60;;;16.80;93.90;;;;;;5075421;28;20445;-58
2023/09/23 09:13:38;;;;;;;6.63;2.70;;;16.90;93.90;;;;;;5075406;28;20449;-58
2023/09/23 09:16:06;;;;;;;3.97;2.50;;;16.90;93.60;;;;;;5075063;28;20449;-58
2023/09/23 09:18:33;;;;;;;6.53;2.40;;;16.90;92.90;;;;;;5075310;28;20502;-58
2023/09/23 09:21:01;;;;;;;3.83;2.30;;;16.90;92.70;;;;;;5076099;28;20817;-58
2023/09/23 09:23:30;;;;;;;5.50;2.67;;;17.00;92.70;;;;;;5074289;28;20512;-58
2023/09/23 09:25:57;;;;;;;4.83;1.93;;;17.10;92.30;;;;;;5074408;28;20534;-58
2023/09/23 09:28:24;;;;;;;6.47;2.00;;;17.10;92.60;;;;;;5075082;28;20509;-58
2023/09/23 09:30:56;;;;;;;4.20;1.53;;;17.10;92.20;;;;;;5074930;28;20468;-58
2023/09/23 09:33:26;;;;;;;3.40;1.80;;;17.10;92.40;;;;;;5074485;28;20475;-59
2023/09/23 09:35:55;;;;;;;2.73;1.70;;;17.20;91.40;;;;;;5074397;28;20479;-58
2023/09/23 09:38:24;;;;;;;5.50;1.70;;;17.20;91.80;;;;;;5075016;28;20456;-58
2023/09/23 09:40:52;;;;;;;3.70;1.40;;;17.40;91.80;;;;;;5074933;28;20467;-58
2023/09/23 09:43:21;;;;;;;3.87;1.73;;;17.60;91.10;;;;;;5074777;28;20841;-58
2023/09/23 09:45:49;;;;;;;3.23;1.97;;;17.50;90.00;;;;;;5074514;28;20457;-58
2023/09/23 09:48:19;;;;;;;5.20;1.83;;;17.50;89.50;;;;;;5074392;28;20447;-58
2023/09/23 09:50:47;;;;;;;3.73;1.50;;;17.60;91.00;;;;;;5074663;28;20465;-58
2023/09/23 09:53:16;;;;;;;2.30;1.50;;;17.50;88.50;;;;;;5074692;28;20437;-58
2023/09/23 09:55:46;;;;;;;6.43;2.97;;;17.50;89.90;;;;;;5074358;28;20453;-58
2023/09/23 09:58:13;;;;;;;4.33;1.60;;;17.70;88.60;;;;;;5075509;28;20449;-58
2023/09/23 10:00:42;;;;;;;3.23;1.17;;;17.90;89.50;;;;;;5074386;28;20461;-58
2023/09/23 10:03:12;;;;;;;3.00;1.10;;;18.10;86.20;;;;;;5085870;28;20472;-58
2023/09/23 10:05:43;;;;;;;5.53;1.47;;;18.30;84.80;;;;;;5094022;28;20479;-58
2023/09/23 10:08:12;;;;;;;2.47;1.20;;;18.60;82.70;;;;;;5094941;28;20482;-58
2023/09/23 10:10:47;;;;;;;3.13;1.20;;;18.80;81.10;;;;;;5094886;28;20526;-58
2023/09/23 10:13:14;;;;;;;3.93;1.23;;;19.20;81.70;;;;;;5086048;28;20440;-58
2023/09/23 10:15:41;;;;;;;3.23;1.43;;;19.40;78.70;;;;;;5074259;28;20455;-58
2023/09/23 10:18:13;;;;;;;1.37;0.93;;;19.50;80.20;;;;;;5074827;28;20464;-58
2023/09/23 10:20:42;;;;;;;4.00;1.40;;;19.60;78.20;;;;;;5075009;28;20465;-58
2023/09/23 10:23:10;;;;;;;4.40;1.50;;;19.70;77.30;;;;;;5075299;28;20473;-58
2023/09/23 10:25:38;;;;;;;4.70;1.17;;;19.70;77.20;;;;;;5084563;28;20460;-58
2023/09/23 10:28:07;;;;;;;2.70;1.27;;;19.70;77.70;;;;;;5075528;28;20887;-58
2023/09/23 10:30:35;;;;;;;2.30;1.30;;;19.70;77.00;;;;;;5076994;28;20832;-58
2023/09/23 10:33:03;;;;;;;5.50;1.10;;;19.70;75.20;;;;;;5075042;28;20452;-57
2023/09/23 10:35:29;;;;;;;4.63;1.40;;;19.90;74.20;;;;;;5076390;28;20452;-58
2023/09/23 10:37:56;;;;;;;6.00;1.33;;;19.90;72.20;;;;;;5074030;28;20445;-58
2023/09/23 10:40:23;;;;;;;1.63;1.10;;;19.90;72.90;;;;;;5073470;28;20472;-58
2023/09/23 10:42:50;;;;;;;3.87;1.10;;;20.00;73.50;;;;;;5084089;28;20482;-58
2023/09/23 10:45:20;;;;;;;2.53;1.40;;;20.00;73.70;;;;;;5091919;28;20456;-58
2023/09/23 10:47:46;;;;;;;2.23;1.00;;;20.20;74.30;;;;;;5094084;28;20447;-58
2023/09/23 10:50:14;;;;;;;3.33;1.43;;;20.60;72.90;;;;;;5088717;28;20472;-58
2023/09/23 10:52:41;;;;;;;3.70;1.20;;;20.90;70.50;;;;;;5073156;28;20528;-58
2023/09/23 10:55:09;;;;;;;2.20;0.90;;;20.90;67.50;;;;;;5073347;28;20523;-59
2023/09/23 10:57:37;;;;;;;1.73;1.20;;;20.80;67.20;;;;;;5088255;28;20464;-58
2023/09/23 11:00:16;;;;;;;6.63;1.33;;;20.70;69.20;;;;;;5073164;28;21001;-58
2023/09/23 11:02:45;;;;;;;2.53;0.97;;;20.80;67.60;;;;;;5073119;28;20479;-58
2023/09/23 11:05:12;;;;;;;2.57;1.10;;;21.10;70.80;;;;;;5073315;28;20484;-58
2023/09/23 11:07:42;;;;;;;4.00;1.37;;;21.20;67.90;;;;;;5073195;28;20505;-58
2023/09/23 11:10:12;;;;;;;3.60;1.10;;;20.90;67.00;;;;;;5072961;28;20469;-58
2023/09/23 11:12:39;;;;;;;2.53;1.37;;;20.60;67.70;;;;;;5073069;28;20848;-58
2023/09/23 11:15:09;;;;;;;3.40;1.13;;;20.60;69.30;;;;;;5073217;28;20441;-58
2023/09/23 11:17:36;;;;;;;2.07;1.10;;;21.20;65.90;;;;;;5073853;28;20432;-58
2023/09/23 11:20:08;;;;;;;2.90;1.10;;;22.00;64.50;;;;;;5091788;28;20476;-59
2023/09/23 11:22:35;;;;;;;1.93;0.97;;;22.60;57.60;;;;;;5093056;28;20985;-58
2023/09/23 11:25:02;;;;;;;1.97;0.70;;;23.20;57.10;;;;;;5081364;28;20464;-58
2023/09/23 11:27:30;;;;;;;2.87;1.23;;;23.60;55.20;;;;;;5089760;28;20458;-58
2023/09/23 11:29:57;;;;;;;2.93;1.17;;;23.90;53.70;;;;;;5077946;28;20476;-59
2023/09/23 11:32:25;;;;;;;5.50;1.10;;;24.50;53.30;;;;;;5072573;28;20931;-58
2023/09/23 11:34:52;;;;;;;2.20;0.90;;;24.70;51.40;;;;;;5072687;28;20873;-58
2023/09/23 11:37:22;;;;;;;2.57;1.13;;;24.60;49.50;;;;;;5091106;28;20444;-58
2023/09/23 11:39:49;;;;;;;1.30;0.80;;;24.00;51.40;;;;;;5091330;28;20471;-58
2023/09/23 11:42:16;;;;;;;2.70;0.73;;;23.50;54.50;;;;;;5093512;28;20466;-58
2023/09/23 11:44:43;;;;;;;2.93;1.10;;;23.20;56.20;;;;;;5093008;28;20443;-58
2023/09/23 11:47:10;;;;;;;2.17;1.00;;;22.60;55.60;;;;;;5092840;28;20929;-58
2023/09/23 11:49:37;;;;;;;4.20;1.60;;;21.90;56.90;;;;;;5090141;28;20515;-58
2023/09/23 11:52:11;;;;;;;1.30;1.10;;;21.40;60.30;;;;;;5073373;28;20977;-58
2023/09/23 11:54:40;;;;;;;7.40;1.50;;;20.80;61.00;;;;;;5073022;28;20420;-58
2023/09/23 11:57:08;;;;;;;3.30;1.00;;;20.80;63.20;;;;;;5074892;28;20475;-58
2023/09/23 11:59:34;;;;;;;2.90;1.20;;;21.60;62.40;;;;;;5076906;28;20468;-58
2023/09/23 12:02:01;;;;;;;5.23;1.40;;;22.70;57.50;;;;;;5096409;28;20945;-58
2023/09/23 12:04:28;;;;;;;1.23;1.00;;;23.50;57.00;;;;;;5096863;28;20550;-58
2023/09/23 12:06:55;;;;;;;2.10;0.70;;;24.10;54.80;;;;;;5096781;28;20451;-58
2023/09/23 12:09:23;;;;;;;2.20;1.10;;;24.50;51.40;;;;;;5093171;28;20483;-58
2023/09/23 12:11:51;;;;;;;2.23;1.10;;;24.90;50.00;;;;;;5096800;28;20444;-58
2023/09/23 12:14:19;;;;;;;3.03;1.20;;;25.00;50.40;;;;;;5096643;28;20443;-58
2023/09/23 12:16:46;;;;;;;3.60;1.20;;;25.00;49.40;;;;;;5096516;28;20443;-60
2023/09/23 12:19:13;;;;;;;1.40;0.93;;;24.80;49.30;;;;;;5094698;28;20499;-58
2023/09/23 12:21:40;;;;;;;3.83;1.47;;;24.70;50.30;;;;;;5076989;28;20452;-58
2023/09/23 12:24:07;;;;;;;6.67;1.50;;;25.10;51.10;;;;;;5077395;28;20520;-58
2023/09/23 12:26:35;;;;;;;2.30;1.37;;;25.40;48.30;;;;;;5086052;28;20943;-58
2023/09/23 12:29:03;;;;;;;1.30;1.07;;;26.00;49.40;;;;;;5075792;28;20999;-58
2023/09/23 12:31:30;;;;;;;1.53;1.13;;;26.80;48.30;;;;;;5093595;28;20439;-58
2023/09/23 12:33:56;;;;;;;3.07;1.30;;;27.40;44.00;;;;;;5097209;28;20820;-58
2023/09/23 12:36:23;;;;;;;7.30;1.90;;;28.00;43.40;;;;;;5095576;28;20451;-56
2023/09/23 12:38:50;;;;;;;2.60;1.20;;;28.70;41.40;;;;;;5095783;28;20475;-56
2023/09/23 12:41:17;;;;;;;2.57;1.20;;;29.10;38.90;;;;;;5081296;28;20521;-56
2023/09/23 12:43:44;;;;;;;2.80;1.20;;;29.30;39.10;;;;;;5075680;28;20480;-56
2023/09/23 12:46:12;;;;;;;2.73;1.30;;;29.30;39.40;;;;;;5089768;28;20447;-56
2023/09/23 12:48:38;;;;;;;2.40;1.30;;;29.20;40.30;;;;;;5095978;28;20451;-56